createdAt,value
2017-04-18T00:00:10.469Z,1.57
2017-04-18T00:01:07.829Z,1.57
2017-04-18T00:02:06.810Z,1.88
2017-04-18T00:03:04.196Z,1.32
2017-04-18T00:04:02.100Z,1.83
2017-04-18T00:04:59.564Z,1.47
2017-04-18T00:05:56.966Z,1.30
2017-04-18T00:06:55.696Z,1.57
2017-04-18T00:07:53.021Z,1.37
2017-04-18T00:08:51.141Z,1.45
2017-04-18T00:09:48.474Z,1.45
2017-04-18T00:10:46.253Z,2.10
2017-04-18T00:11:44.402Z,1.55
2017-04-18T00:12:42.710Z,1.15
2017-04-18T00:13:40.074Z,1.40
2017-04-18T00:14:38.201Z,2.17
2017-04-18T00:15:36.339Z,1.30
2017-04-18T00:16:34.521Z,1.47
2017-04-18T00:17:31.842Z,1.53
2017-04-18T00:18:29.198Z,1.40
2017-04-18T00:19:26.514Z,2.10
2017-04-18T00:20:24.589Z,2.35
2017-04-18T00:21:21.995Z,1.98
2017-04-18T00:22:20.224Z,1.38
2017-04-18T00:23:17.552Z,1.63
2017-04-18T00:24:14.929Z,1.80
2017-04-18T00:25:12.577Z,1.90
2017-04-18T00:26:10.822Z,1.37
2017-04-18T00:27:09.021Z,1.53
2017-04-18T00:28:06.505Z,1.25
2017-04-18T00:29:04.674Z,1.63
2017-04-18T00:30:02.034Z,1.88
2017-04-18T00:31:00.330Z,1.43
2017-04-18T00:31:58.402Z,1.75
2017-04-18T00:32:55.762Z,2.03
2017-04-18T00:33:54.882Z,1.27
2017-04-18T00:34:52.232Z,1.43
2017-04-18T00:35:49.581Z,1.37
2017-04-18T00:36:46.939Z,1.60
2017-04-18T00:37:44.525Z,1.37
2017-04-18T00:38:41.955Z,1.55
2017-04-18T00:39:39.378Z,1.90
2017-04-18T00:40:37.492Z,1.22
2017-04-18T00:41:34.905Z,2.33
2017-04-18T00:42:32.269Z,2.25
2017-04-18T00:43:29.678Z,1.40
2017-04-18T00:44:27.022Z,2.20
2017-04-18T00:45:25.834Z,2.25
2017-04-18T00:46:23.224Z,1.68
2017-04-18T00:47:21.208Z,1.83
2017-04-18T00:48:19.427Z,1.47
2017-04-18T00:49:16.764Z,1.40
2017-04-18T00:50:14.119Z,1.57
2017-04-18T00:51:12.265Z,2.22
2017-04-18T00:52:09.684Z,1.67
2017-04-18T00:53:07.019Z,1.47
2017-04-18T00:54:05.077Z,1.77
2017-04-18T00:55:02.546Z,2.40
2017-04-18T00:55:59.885Z,1.35
2017-04-18T00:56:57.214Z,1.55
2017-04-18T00:57:55.621Z,1.52
2017-04-18T00:58:53.018Z,1.53
2017-04-18T00:59:50.976Z,2.00
2017-04-18T01:00:49.482Z,1.77
2017-04-18T01:01:47.551Z,2.00
2017-04-18T01:02:44.973Z,2.05
2017-04-18T01:03:42.501Z,1.60
2017-04-18T01:04:39.952Z,2.12
2017-04-18T01:05:37.436Z,3.07
2017-04-18T01:06:34.907Z,1.73
2017-04-18T01:07:32.540Z,1.87
2017-04-18T01:08:30.035Z,1.98
2017-04-18T01:09:28.184Z,2.13
2017-04-18T01:10:25.557Z,2.52
2017-04-18T01:11:22.918Z,2.88
2017-04-18T01:12:21.977Z,2.78
2017-04-18T01:13:19.654Z,3.18
2017-04-18T01:14:18.377Z,2.30
2017-04-18T01:15:15.737Z,3.15
2017-04-18T01:16:13.097Z,2.53
2017-04-18T01:17:11.206Z,2.93
2017-04-18T01:18:09.405Z,2.35
2017-04-18T01:19:06.789Z,3.02
2017-04-18T01:20:04.189Z,2.67
2017-04-18T01:21:02.358Z,2.55
2017-04-18T01:22:01.020Z,2.15
2017-04-18T01:22:58.510Z,2.92
2017-04-18T01:23:56.614Z,2.82
2017-04-18T01:24:53.963Z,3.08
2017-04-18T01:25:52.162Z,2.40
2017-04-18T01:26:50.245Z,3.48
2017-04-18T01:27:48.379Z,3.15
2017-04-18T01:28:46.404Z,2.90
2017-04-18T01:29:43.728Z,2.75
2017-04-18T01:30:43.628Z,3.52
2017-04-18T01:31:41.701Z,2.38
2017-04-18T01:32:39.880Z,2.93
2017-04-18T01:33:37.965Z,3.00
2017-04-18T01:34:35.706Z,3.00
2017-04-18T01:35:33.041Z,3.80
2017-04-18T01:36:30.404Z,2.53
2017-04-18T01:37:28.502Z,2.45
2017-04-18T01:38:25.840Z,3.12
2017-04-18T01:39:23.352Z,2.53
2017-04-18T01:40:26.354Z,2.58
2017-04-18T01:43:30.872Z,3.18
2017-04-18T01:44:34.446Z,2.43
2017-04-18T01:45:37.321Z,2.47
2017-04-18T01:46:35.858Z,2.47
2017-04-18T01:47:33.652Z,2.47
2017-04-18T01:48:31.033Z,3.03
2017-04-18T01:49:28.462Z,3.18
2017-04-18T01:50:25.808Z,2.93
2017-04-18T01:51:23.885Z,3.28
2017-04-18T01:52:21.245Z,2.98
2017-04-18T01:53:18.655Z,2.60
2017-04-18T01:54:16.002Z,2.87
2017-04-18T01:55:14.244Z,2.95
2017-04-18T01:56:12.404Z,3.10
2017-04-18T01:57:10.537Z,3.68
2017-04-18T01:58:07.890Z,2.50
2017-04-18T01:59:05.254Z,3.23
2017-04-18T02:00:11.208Z,2.73
2017-04-18T02:01:08.635Z,2.97
2017-04-18T02:02:06.064Z,3.05
2017-04-18T02:03:04.167Z,3.22
2017-04-18T02:04:01.737Z,3.10
2017-04-18T02:04:59.126Z,3.72
2017-04-18T02:05:57.171Z,3.88
2017-04-18T02:06:54.651Z,3.62
2017-04-18T02:07:51.981Z,3.67
2017-04-18T02:08:49.370Z,2.88
2017-04-18T02:09:47.992Z,3.23
2017-04-18T02:10:45.488Z,3.15
2017-04-18T02:11:43.674Z,3.07
2017-04-18T02:12:41.010Z,3.10
2017-04-18T02:13:39.145Z,3.13
2017-04-18T02:14:36.468Z,3.97
2017-04-18T02:15:33.824Z,2.88
2017-04-18T02:16:31.245Z,3.27
2017-04-18T02:17:29.417Z,3.43
2017-04-18T02:18:26.762Z,2.78
2017-04-18T02:19:25.156Z,3.43
2017-04-18T02:20:23.276Z,3.23
2017-04-18T02:21:21.473Z,2.80
2017-04-18T02:22:19.659Z,3.87
2017-04-18T02:23:17.002Z,3.35
2017-04-18T02:24:15.273Z,3.92
2017-04-18T02:25:14.189Z,4.35
2017-04-18T02:26:12.346Z,2.78
2017-04-18T02:27:09.801Z,3.38
2017-04-18T02:28:07.281Z,3.17
2017-04-18T02:29:04.798Z,3.45
2017-04-18T02:30:02.349Z,3.92
2017-04-18T02:31:00.534Z,3.03
2017-04-18T02:31:57.877Z,3.98
2017-04-18T02:32:55.326Z,3.00
2017-04-18T02:33:53.421Z,3.33
2017-04-18T02:34:50.762Z,3.60
2017-04-18T02:35:48.118Z,3.20
2017-04-18T02:36:46.477Z,3.18
2017-04-18T02:37:43.897Z,3.43
2017-04-18T02:38:42.072Z,4.42
2017-04-18T02:39:39.432Z,3.62
2017-04-18T02:40:38.261Z,3.27
2017-04-18T02:41:36.270Z,3.53
2017-04-18T02:42:33.729Z,3.18
2017-04-18T02:43:31.075Z,3.60
2017-04-18T02:44:28.500Z,3.35
2017-04-18T02:45:25.843Z,3.12
2017-04-18T02:46:23.321Z,3.30
2017-04-18T02:47:22.448Z,4.37
2017-04-18T02:48:20.586Z,3.97
2017-04-18T02:49:18.413Z,3.83
2017-04-18T02:50:15.829Z,3.43
2017-04-18T02:51:13.197Z,4.00
2017-04-18T02:52:10.583Z,4.25
2017-04-18T02:53:08.737Z,4.43
2017-04-18T02:54:06.703Z,2.87
2017-04-18T02:55:04.752Z,3.68
2017-04-18T02:56:02.846Z,4.12
2017-04-18T02:57:01.617Z,3.20
2017-04-18T02:57:59.051Z,4.05
2017-04-18T02:58:56.680Z,3.93
2017-04-18T02:59:54.065Z,3.85
2017-04-18T03:00:51.436Z,3.90
2017-04-18T03:01:48.789Z,3.75
2017-04-18T03:02:46.117Z,3.50
2017-04-18T03:03:43.558Z,3.28
2017-04-18T03:04:41.128Z,3.57
2017-04-18T03:05:39.349Z,3.42
2017-04-18T03:06:37.422Z,3.77
2017-04-18T03:07:34.827Z,3.38
2017-04-18T03:08:32.669Z,3.33
2017-04-18T03:09:30.452Z,3.68
2017-04-18T03:10:28.185Z,3.50
2017-04-18T03:11:25.588Z,3.65
2017-04-18T03:12:22.932Z,3.92
2017-04-18T03:13:20.934Z,3.68
2017-04-18T03:14:19.023Z,3.47
2017-04-18T03:15:16.493Z,3.87
2017-04-18T03:16:15.414Z,3.00
2017-04-18T03:17:14.519Z,4.57
2017-04-18T03:18:11.843Z,3.02
2017-04-18T03:19:09.962Z,4.02
2017-04-18T03:20:08.743Z,3.70
2017-04-18T03:21:06.355Z,3.75
2017-04-18T03:22:03.695Z,4.10
2017-04-18T03:23:01.035Z,3.67
2017-04-18T03:23:58.942Z,3.95
2017-04-18T03:24:57.039Z,4.32
2017-04-18T03:25:54.595Z,3.92
2017-04-18T03:26:52.601Z,3.65
2017-04-18T03:27:50.701Z,3.52
2017-04-18T03:28:49.015Z,3.32
2017-04-18T03:29:46.900Z,3.67
2017-04-18T03:30:44.331Z,3.47
2017-04-18T03:31:42.678Z,3.67
2017-04-18T03:32:40.009Z,3.47
2017-04-18T03:33:38.127Z,3.28
2017-04-18T03:34:36.193Z,3.22
2017-04-18T03:35:33.580Z,2.98
2017-04-18T03:36:30.931Z,3.62
2017-04-18T03:37:28.345Z,3.73
2017-04-18T03:38:25.705Z,3.88
2017-04-18T03:39:23.045Z,4.18
2017-04-18T03:40:20.366Z,3.47
2017-04-18T03:41:17.856Z,3.23
2017-04-18T03:42:15.881Z,3.45
2017-04-18T03:43:13.343Z,3.97
2017-04-18T03:44:10.696Z,2.40
2017-04-18T03:45:09.845Z,2.70
2017-04-18T03:46:07.181Z,2.63
2017-04-18T03:47:05.279Z,2.83
2017-04-18T03:48:03.147Z,2.87
2017-04-18T03:49:01.236Z,2.85
2017-04-18T03:49:58.621Z,2.55
2017-04-18T03:50:56.708Z,3.08
2017-04-18T03:51:54.093Z,2.45
2017-04-18T03:52:52.071Z,2.03
2017-04-18T03:53:49.430Z,1.80
2017-04-18T03:54:46.798Z,1.83
2017-04-18T03:55:45.405Z,1.60
2017-04-18T03:56:42.804Z,1.77
2017-04-18T03:57:40.789Z,1.20
2017-04-18T03:58:39.054Z,1.58
2017-04-18T03:59:37.154Z,1.40
2017-04-18T04:00:34.533Z,1.20
2017-04-18T04:01:31.960Z,1.10
2017-04-18T04:02:29.344Z,1.00
2017-04-18T04:03:26.671Z,1.33
2017-04-18T04:04:24.987Z,1.27
2017-04-18T04:05:22.327Z,1.28
2017-04-18T04:06:19.688Z,1.43
2017-04-18T04:07:17.066Z,1.23
2017-04-18T04:08:15.037Z,1.03
2017-04-18T04:09:13.517Z,1.05
2017-04-18T04:10:13.582Z,1.48
2017-04-18T04:11:11.855Z,1.35
2017-04-18T04:12:09.189Z,1.32
2017-04-18T04:13:06.546Z,1.17
2017-04-18T04:14:03.931Z,1.10
2017-04-18T04:15:02.070Z,1.37
2017-04-18T04:15:59.500Z,1.65
2017-04-18T04:16:56.857Z,1.62
2017-04-18T04:17:54.966Z,1.52
2017-04-18T04:18:52.348Z,1.73
2017-04-18T04:19:49.669Z,1.83
2017-04-18T04:20:48.489Z,1.65
2017-04-18T04:21:45.920Z,1.73
2017-04-18T04:22:44.799Z,1.37
2017-04-18T04:23:42.167Z,1.57
2017-04-18T04:24:39.581Z,1.62
2017-04-18T04:25:37.542Z,1.40
2017-04-18T04:26:35.054Z,1.68
2017-04-18T04:27:33.770Z,2.15
2017-04-18T04:28:31.121Z,1.70
2017-04-18T04:29:28.505Z,1.85
2017-04-18T04:30:26.942Z,1.48
2017-04-18T04:31:25.500Z,1.70
2017-04-18T04:32:22.857Z,1.83
2017-04-18T04:33:21.137Z,1.38
2017-04-18T04:34:18.697Z,1.38
2017-04-18T04:35:16.603Z,1.30
2017-04-18T04:36:14.717Z,1.18
2017-04-18T04:37:12.113Z,0.80
2017-04-18T04:38:09.499Z,1.20
2017-04-18T04:39:06.890Z,1.40
2017-04-18T04:40:06.341Z,0.80
2017-04-18T04:41:03.865Z,0.80
2017-04-18T04:42:02.142Z,0.73
2017-04-18T04:42:59.610Z,1.00
2017-04-18T04:43:57.029Z,0.67
2017-04-18T04:44:54.376Z,0.95
2017-04-18T04:45:51.722Z,1.38
2017-04-18T04:46:49.913Z,0.95
2017-04-18T04:47:47.911Z,1.10
2017-04-18T04:48:45.411Z,1.03
2017-04-18T04:49:42.752Z,0.88
2017-04-18T04:50:40.152Z,1.00
2017-04-18T04:51:38.114Z,1.00
2017-04-18T04:52:35.522Z,0.90
2017-04-18T04:53:32.904Z,0.92
2017-04-18T04:54:30.872Z,1.05
2017-04-18T04:55:28.208Z,1.05
2017-04-18T04:56:25.542Z,1.68
2017-04-18T04:57:22.963Z,0.82
2017-04-18T04:58:20.326Z,1.07
2017-04-18T04:59:18.530Z,2.03
2017-04-18T05:00:15.973Z,1.18
2017-04-18T05:01:13.323Z,1.47
2017-04-18T05:02:10.669Z,0.80
2017-04-18T05:03:08.735Z,0.88
2017-04-18T05:04:06.638Z,0.87
2017-04-18T05:05:04.115Z,0.90
2017-04-18T05:06:01.657Z,1.00
2017-04-18T05:06:59.023Z,0.83
2017-04-18T05:07:57.760Z,0.70
2017-04-18T05:08:55.831Z,0.70
2017-04-18T05:09:53.289Z,0.60
2017-04-18T05:10:51.397Z,1.18
2017-04-18T05:11:48.794Z,0.95
2017-04-18T05:12:46.197Z,1.88
2017-04-18T05:13:43.632Z,0.67
2017-04-18T05:14:41.761Z,0.98
2017-04-18T05:15:39.213Z,1.08
2017-04-18T05:16:37.106Z,0.93
2017-04-18T05:17:34.512Z,1.02
2017-04-18T05:18:32.681Z,1.17
2017-04-18T05:19:30.087Z,0.82
2017-04-18T05:20:27.458Z,1.32
2017-04-18T05:21:25.642Z,1.23
2017-04-18T05:22:23.062Z,0.87
2017-04-18T05:23:22.232Z,0.98
2017-04-18T05:24:19.574Z,0.92
2017-04-18T05:25:17.436Z,1.73
2017-04-18T05:26:16.210Z,1.07
2017-04-18T05:27:14.345Z,1.10
2017-04-18T05:28:12.434Z,1.00
2017-04-18T05:29:11.238Z,1.18
2017-04-18T05:30:09.981Z,1.07
2017-04-18T05:31:08.294Z,1.20
2017-04-18T05:32:05.792Z,1.07
2017-04-18T05:33:03.136Z,1.97
2017-04-18T05:34:00.479Z,1.02
2017-04-18T05:34:57.870Z,1.05
2017-04-18T05:35:55.277Z,0.97
2017-04-18T05:36:52.704Z,1.03
2017-04-18T05:37:50.194Z,0.87
2017-04-18T05:38:47.553Z,0.98
2017-04-18T05:39:45.753Z,0.75
2017-04-18T05:40:43.096Z,0.80
2017-04-18T05:41:40.462Z,0.97
2017-04-18T05:42:37.904Z,1.15
2017-04-18T05:43:36.032Z,1.02
2017-04-18T05:44:33.357Z,1.10
2017-04-18T05:45:31.607Z,1.17
2017-04-18T05:46:28.935Z,1.17
2017-04-18T05:47:26.333Z,1.17
2017-04-18T05:48:24.521Z,1.07
2017-04-18T05:49:21.850Z,1.00
2017-04-18T05:50:19.222Z,1.60
2017-04-18T05:51:17.209Z,1.40
2017-04-18T05:52:14.561Z,1.27
2017-04-18T05:53:12.009Z,1.32
2017-04-18T05:54:09.352Z,1.52
2017-04-18T05:55:07.473Z,1.33
2017-04-18T05:56:04.837Z,1.40
2017-04-18T05:57:02.283Z,1.35
2017-04-18T05:58:00.338Z,1.42
2017-04-18T05:58:57.825Z,1.38
2017-04-18T05:59:55.207Z,1.43
2017-04-18T06:00:52.607Z,1.47
2017-04-18T06:01:49.989Z,1.27
2017-04-18T06:02:48.015Z,1.37
2017-04-18T06:03:45.446Z,1.58
2017-04-18T06:04:42.873Z,1.17
2017-04-18T06:05:40.245Z,0.92
2017-04-18T06:06:37.678Z,1.33
2017-04-18T06:07:35.060Z,1.58
2017-04-18T06:08:33.315Z,1.02
2017-04-18T06:09:30.809Z,1.42
2017-04-18T06:10:28.193Z,1.10
2017-04-18T06:11:25.597Z,1.88
2017-04-18T06:12:22.944Z,1.07
2017-04-18T06:13:20.352Z,1.20
2017-04-18T06:14:17.801Z,1.63
2017-04-18T06:15:15.799Z,1.40
2017-04-18T06:16:13.188Z,1.28
2017-04-18T06:17:10.525Z,1.70
2017-04-18T06:18:08.492Z,1.32
2017-04-18T06:19:06.744Z,1.52
2017-04-18T06:20:04.193Z,1.65
2017-04-18T06:21:01.550Z,1.65
2017-04-18T06:21:59.465Z,3.18
2017-04-18T06:22:57.751Z,1.52
2017-04-18T06:23:55.194Z,1.58
2017-04-18T06:24:53.541Z,1.50
2017-04-18T06:25:51.734Z,1.52
2017-04-18T06:26:49.114Z,1.60
2017-04-18T06:27:46.692Z,1.28
2017-04-18T06:28:44.067Z,1.72
2017-04-18T06:29:41.419Z,1.57
2017-04-18T06:30:39.554Z,1.60
2017-04-18T06:31:37.747Z,1.85
2017-04-18T06:32:35.110Z,1.88
2017-04-18T06:33:33.142Z,1.72
2017-04-18T06:34:30.494Z,2.20
2017-04-18T06:35:28.624Z,1.53
2017-04-18T06:36:26.082Z,1.60
2017-04-18T06:37:23.453Z,1.98
2017-04-18T06:38:20.921Z,2.03
2017-04-18T06:39:18.311Z,1.57
2017-04-18T06:40:15.974Z,1.53
2017-04-18T06:41:14.383Z,1.90
2017-04-18T06:42:11.790Z,1.80
2017-04-18T06:43:09.156Z,2.23
2017-04-18T06:44:08.348Z,2.22
2017-04-18T06:45:05.720Z,1.83
2017-04-18T06:46:03.130Z,1.83
2017-04-18T06:47:00.570Z,1.80
2017-04-18T06:47:58.017Z,1.85
2017-04-18T06:48:56.158Z,1.93
2017-04-18T06:49:53.514Z,1.80
2017-04-18T06:50:50.886Z,1.33
2017-04-18T06:51:49.102Z,2.07
2017-04-18T06:52:47.343Z,2.67
2017-04-18T06:53:45.290Z,2.23
2017-04-18T06:54:42.810Z,1.80
2017-04-18T06:55:40.162Z,1.55
2017-04-18T06:56:37.518Z,1.53
2017-04-18T06:57:35.593Z,1.78
2017-04-18T06:58:34.013Z,1.47
2017-04-18T06:59:31.364Z,1.75
2017-04-18T07:00:29.508Z,1.18
2017-04-18T07:01:26.900Z,2.20
2017-04-18T07:02:24.293Z,1.55
2017-04-18T07:03:21.741Z,1.47
2017-04-18T07:04:19.558Z,1.42
2017-04-18T07:05:17.779Z,1.67
2017-04-18T07:06:15.746Z,1.43
2017-04-18T07:07:13.156Z,1.28
2017-04-18T07:08:10.702Z,1.28
2017-04-18T07:09:08.076Z,1.12
2017-04-18T07:10:06.416Z,1.47
2017-04-18T07:11:04.518Z,1.15
2017-04-18T07:12:03.636Z,1.10
2017-04-18T07:13:01.825Z,1.20
2017-04-18T07:13:59.175Z,1.13
2017-04-18T07:14:57.565Z,0.92
2017-04-18T07:15:54.942Z,1.35
2017-04-18T07:16:53.166Z,1.07
2017-04-18T07:17:50.590Z,1.38
2017-04-18T07:18:48.701Z,1.07
2017-04-18T07:19:46.092Z,1.55
2017-04-18T07:20:43.426Z,1.30
2017-04-18T07:21:41.441Z,1.58
2017-04-18T07:22:38.848Z,1.18
2017-04-18T07:23:37.333Z,1.12
2017-04-18T07:24:34.739Z,1.57
2017-04-18T07:25:33.571Z,1.50
2017-04-18T07:26:32.446Z,1.50
2017-04-18T07:27:31.010Z,1.42
2017-04-18T07:28:29.070Z,1.27
2017-04-18T07:29:26.416Z,1.15
2017-04-18T07:30:23.749Z,1.20
2017-04-18T07:31:21.098Z,1.00
2017-04-18T07:32:19.374Z,1.27
2017-04-18T07:33:16.772Z,1.38
2017-04-18T07:34:14.144Z,1.50
2017-04-18T07:35:11.485Z,1.13
2017-04-18T07:36:08.941Z,1.68
2017-04-18T07:37:07.540Z,1.10
2017-04-18T07:38:05.002Z,1.10
2017-04-18T07:39:02.435Z,1.43
2017-04-18T07:40:00.541Z,1.38
2017-04-18T07:40:59.546Z,1.12
2017-04-18T07:41:56.893Z,1.68
2017-04-18T07:42:55.071Z,1.60
2017-04-18T07:43:53.472Z,1.32
2017-04-18T07:44:50.865Z,1.15
2017-04-18T07:45:48.968Z,1.30
2017-04-18T07:46:47.287Z,1.05
2017-04-18T07:47:44.682Z,1.15
2017-04-18T07:48:42.052Z,1.48
2017-04-18T07:49:40.087Z,1.17
2017-04-18T07:50:37.441Z,1.47
2017-04-18T07:51:35.769Z,1.28
2017-04-18T07:52:33.238Z,1.02
2017-04-18T07:53:30.564Z,1.10
2017-04-18T07:54:27.953Z,1.32
2017-04-18T07:55:25.546Z,1.12
2017-04-18T07:56:22.939Z,1.08
2017-04-18T07:57:20.286Z,1.03
2017-04-18T07:58:18.901Z,1.45
2017-04-18T07:59:16.274Z,1.38
2017-04-18T08:00:14.269Z,0.98
2017-04-18T08:01:13.018Z,1.37
2017-04-18T08:02:10.421Z,0.93
2017-04-18T08:03:07.869Z,0.87
2017-04-18T08:04:05.260Z,0.95
2017-04-18T08:05:03.449Z,1.10
2017-04-18T08:06:00.987Z,0.90
2017-04-18T08:06:58.472Z,1.13
2017-04-18T08:07:56.474Z,0.92
2017-04-18T08:08:55.484Z,1.28
2017-04-18T08:09:54.667Z,0.90
2017-04-18T08:10:52.946Z,1.30
2017-04-18T08:11:50.345Z,1.02
2017-04-18T08:12:49.033Z,1.22
2017-04-18T08:13:46.474Z,1.08
2017-04-18T08:14:43.925Z,1.55
2017-04-18T08:15:41.295Z,1.07
2017-04-18T08:16:38.665Z,1.37
2017-04-18T08:17:36.910Z,1.13
2017-04-18T08:18:35.022Z,0.93
2017-04-18T08:19:32.605Z,1.23
2017-04-18T08:20:30.745Z,0.92
2017-04-18T08:21:28.118Z,0.88
2017-04-18T08:22:25.509Z,1.00
2017-04-18T08:23:23.515Z,2.38
2017-04-18T08:24:21.727Z,1.18
2017-04-18T08:25:19.712Z,1.38
2017-04-18T08:26:17.899Z,1.40
2017-04-18T08:27:15.895Z,1.07
2017-04-18T08:28:13.279Z,1.83
2017-04-18T08:29:10.662Z,1.47
2017-04-18T08:30:08.132Z,1.43
2017-04-18T08:31:05.603Z,1.15
2017-04-18T08:32:03.203Z,0.92
2017-04-18T08:33:00.658Z,1.05
2017-04-18T08:33:58.026Z,1.02
2017-04-18T08:34:56.348Z,1.20
2017-04-18T08:35:53.757Z,1.38
2017-04-18T08:36:51.327Z,1.57
2017-04-18T08:37:48.676Z,0.92
2017-04-18T08:38:46.778Z,1.33
2017-04-18T08:39:44.132Z,0.90
2017-04-18T08:40:42.505Z,1.18
2017-04-18T08:41:40.622Z,1.38
2017-04-18T08:42:38.566Z,1.37
2017-04-18T08:43:36.665Z,1.22
2017-04-18T08:44:34.977Z,2.78
2017-04-18T08:45:33.283Z,1.40
2017-04-18T08:46:31.261Z,1.28
2017-04-18T08:47:29.356Z,1.23
2017-04-18T08:48:26.753Z,1.45
2017-04-18T08:49:24.377Z,1.85
2017-04-18T08:50:21.848Z,1.22
2017-04-18T08:51:19.316Z,2.00
2017-04-18T08:52:16.747Z,1.32
2017-04-18T08:53:14.079Z,1.68
2017-04-18T08:54:12.994Z,1.55
2017-04-18T08:55:10.410Z,1.10
2017-04-18T08:56:08.637Z,1.83
2017-04-18T08:57:06.031Z,1.20
2017-04-18T08:58:03.420Z,1.12
2017-04-18T08:59:01.638Z,1.17
2017-04-18T08:59:58.974Z,1.63
2017-04-18T09:00:56.445Z,1.20
2017-04-18T09:01:54.565Z,1.77
2017-04-18T09:02:52.645Z,1.77
2017-04-18T09:03:50.739Z,2.05
2017-04-18T09:04:48.647Z,1.38
2017-04-18T09:05:46.761Z,1.25
2017-04-18T09:06:44.326Z,1.47
2017-04-18T09:07:42.435Z,1.33
2017-04-18T09:08:39.830Z,1.27
2017-04-18T09:09:37.150Z,1.40
2017-04-18T09:10:34.502Z,1.52
2017-04-18T09:11:31.863Z,1.55
2017-04-18T09:12:30.039Z,1.67
2017-04-18T09:13:27.730Z,0.98
2017-04-18T09:14:25.849Z,1.43
2017-04-18T09:15:23.942Z,1.30
2017-04-18T09:16:21.979Z,1.27
2017-04-18T09:17:19.499Z,1.58
2017-04-18T09:18:18.242Z,1.70
2017-04-18T09:19:15.586Z,1.40
2017-04-18T09:20:13.751Z,1.10
2017-04-18T09:21:12.646Z,2.22
2017-04-18T09:22:10.767Z,1.23
2017-04-18T09:23:08.956Z,1.63
2017-04-18T09:24:06.323Z,1.87
2017-04-18T09:25:04.393Z,1.45
2017-04-18T09:26:01.750Z,1.27
2017-04-18T09:27:00.507Z,1.20
2017-04-18T09:27:58.759Z,1.37
2017-04-18T09:28:56.132Z,1.22
2017-04-18T09:29:53.470Z,1.33
2017-04-18T09:30:50.836Z,1.48
2017-04-18T09:31:48.946Z,1.40
2017-04-18T09:32:46.287Z,1.43
2017-04-18T09:33:43.749Z,1.77
2017-04-18T09:34:41.154Z,1.68
2017-04-18T09:35:39.224Z,1.47
2017-04-18T09:36:36.595Z,2.17
2017-04-18T09:37:35.307Z,1.78
2017-04-18T09:38:32.832Z,1.52
2017-04-18T09:39:30.191Z,1.35
2017-04-18T09:40:27.606Z,1.87
2017-04-18T09:41:26.236Z,1.65
2017-04-18T09:42:24.941Z,2.10
2017-04-18T09:43:23.063Z,1.88
2017-04-18T09:44:21.542Z,1.57
2017-04-18T09:45:19.722Z,1.32
2017-04-18T09:46:17.811Z,1.67
2017-04-18T09:47:15.955Z,1.62
2017-04-18T09:48:13.323Z,1.40
2017-04-18T09:49:10.770Z,1.55
2017-04-18T09:50:08.825Z,1.88
2017-04-18T09:51:06.828Z,1.87
2017-04-18T09:52:04.271Z,1.72
2017-04-18T09:53:01.679Z,2.43
2017-04-18T09:54:00.355Z,2.30
2017-04-18T09:54:58.568Z,1.80
2017-04-18T09:55:57.029Z,2.27
2017-04-18T09:56:54.401Z,1.62
2017-04-18T09:57:51.749Z,1.62
2017-04-18T09:58:49.893Z,2.02
2017-04-18T09:59:47.265Z,1.80
2017-04-18T10:00:46.352Z,1.97
2017-04-18T10:01:44.693Z,1.80
2017-04-18T10:02:42.038Z,1.88
2017-04-18T10:03:39.428Z,1.92
2017-04-18T10:04:36.776Z,1.68
2017-04-18T10:05:34.945Z,1.92
2017-04-18T10:06:32.379Z,1.88
2017-04-18T10:07:29.879Z,2.75
2017-04-18T10:08:27.234Z,2.10
2017-04-18T10:09:24.599Z,2.23
2017-04-18T10:10:23.773Z,2.23
2017-04-18T10:11:21.942Z,2.50
2017-04-18T10:12:19.299Z,2.40
2017-04-18T10:13:16.639Z,2.52
2017-04-18T10:14:13.985Z,2.55
2017-04-18T10:15:12.236Z,2.05
2017-04-18T10:16:10.570Z,2.55
2017-04-18T10:17:08.058Z,2.12
2017-04-18T10:18:05.425Z,1.97
2017-04-18T10:19:02.787Z,1.97
2017-04-18T10:20:00.269Z,2.45
2017-04-18T10:20:59.007Z,2.45
2017-04-18T10:21:57.176Z,2.12
2017-04-18T10:22:55.930Z,1.87
2017-04-18T10:23:53.258Z,1.82
2017-04-18T10:24:50.744Z,1.90
2017-04-18T10:25:48.918Z,1.70
2017-04-18T10:26:46.818Z,2.13
2017-04-18T10:27:45.826Z,1.90
2017-04-18T10:28:44.063Z,1.75
2017-04-18T10:29:42.201Z,2.18
2017-04-18T10:30:39.559Z,1.62
2017-04-18T10:31:38.212Z,1.87
2017-04-18T10:32:35.643Z,1.80
2017-04-18T10:33:35.781Z,1.48
2017-04-18T10:34:34.139Z,1.88
2017-04-18T10:35:31.511Z,1.58
2017-04-18T10:36:29.057Z,2.25
2017-04-18T10:37:26.517Z,2.05
2017-04-18T10:38:24.445Z,1.63
2017-04-18T10:39:21.834Z,2.02
2017-04-18T10:40:19.192Z,1.70
2017-04-18T10:41:17.360Z,1.62
2017-04-18T10:42:16.489Z,1.70
2017-04-18T10:43:14.938Z,1.70
2017-04-18T10:44:13.045Z,1.75
2017-04-18T10:45:10.466Z,1.73
2017-04-18T10:46:09.281Z,2.02
2017-04-18T10:47:06.741Z,1.82
2017-04-18T10:48:04.859Z,2.30
2017-04-18T10:49:02.953Z,1.55
2017-04-18T10:50:00.589Z,2.10
2017-04-18T10:50:57.925Z,1.45
2017-04-18T10:51:56.040Z,1.68
2017-04-18T10:52:53.508Z,1.65
2017-04-18T10:53:50.946Z,1.52
2017-04-18T10:54:48.443Z,1.63
2017-04-18T10:55:46.610Z,1.60
2017-04-18T10:56:44.456Z,1.73
2017-04-18T10:57:41.852Z,1.80
2017-04-18T10:58:39.948Z,2.08
2017-04-18T10:59:37.391Z,1.72
2017-04-18T11:00:34.790Z,1.67
2017-04-18T11:01:32.877Z,1.60
2017-04-18T11:02:31.230Z,1.65
2017-04-18T11:03:29.619Z,1.67
2017-04-18T11:04:26.964Z,1.67
2017-04-18T11:05:24.411Z,1.48
2017-04-18T11:06:21.803Z,1.62
2017-04-18T11:07:19.420Z,1.78
2017-04-18T11:08:17.592Z,1.35
2017-04-18T11:09:14.965Z,1.63
2017-04-18T11:10:12.324Z,1.55
2017-04-18T11:11:10.534Z,1.53
2017-04-18T11:12:07.912Z,1.47
2017-04-18T11:13:05.273Z,1.32
2017-04-18T11:14:02.632Z,1.38
2017-04-18T11:15:00.497Z,1.57
2017-04-18T11:15:59.537Z,1.45
2017-04-18T11:16:56.927Z,2.02
2017-04-18T11:17:54.328Z,1.52
2017-04-18T11:18:52.690Z,1.43
2017-04-18T11:19:50.051Z,1.67
2017-04-18T11:20:47.702Z,1.50
2017-04-18T11:21:46.846Z,1.82
2017-04-18T11:22:44.190Z,2.08
2017-04-18T11:23:41.513Z,2.03
2017-04-18T11:24:38.922Z,2.70
2017-04-18T11:25:36.314Z,1.77
2017-04-18T11:26:33.809Z,2.53
2017-04-18T11:27:31.246Z,2.08
2017-04-18T11:28:28.636Z,2.12
2017-04-18T11:29:26.722Z,2.22
2017-04-18T11:30:24.864Z,2.20
2017-04-18T11:31:22.226Z,2.32
2017-04-18T11:32:19.861Z,2.02
2017-04-18T11:33:17.986Z,2.10
2017-04-18T11:34:15.367Z,2.15
2017-04-18T11:35:12.785Z,2.37
2017-04-18T11:36:10.884Z,1.90
2017-04-18T11:37:08.462Z,2.17
2017-04-18T11:38:05.888Z,1.97
2017-04-18T11:39:04.122Z,2.22
2017-04-18T11:40:01.464Z,2.10
2017-04-18T11:40:58.885Z,2.03
2017-04-18T11:41:56.959Z,2.15
2017-04-18T11:42:54.395Z,1.97
2017-04-18T11:43:51.725Z,2.42
2017-04-18T11:44:49.923Z,1.78
2017-04-18T11:45:48.065Z,2.55
2017-04-18T11:46:46.034Z,2.02
2017-04-18T11:47:43.468Z,2.02
2017-04-18T11:48:40.949Z,1.42
2017-04-18T11:49:38.957Z,1.45
2017-04-18T11:50:36.270Z,1.47
2017-04-18T11:51:34.611Z,1.53
2017-04-18T11:52:31.987Z,1.27
2017-04-18T11:53:29.409Z,1.60
2017-04-18T11:54:27.731Z,1.92
2017-04-18T11:55:26.536Z,1.48
2017-04-18T11:56:23.923Z,1.35
2017-04-18T11:57:21.262Z,2.08
2017-04-18T11:58:18.612Z,2.10
2017-04-18T11:59:16.703Z,1.90
2017-04-18T12:00:14.981Z,1.52
2017-04-18T12:01:13.640Z,2.15
2017-04-18T12:02:11.073Z,1.80
2017-04-18T12:03:09.058Z,1.72
2017-04-18T12:04:06.448Z,1.97
2017-04-18T12:05:03.941Z,1.57
2017-04-18T12:06:01.294Z,1.67
2017-04-18T12:06:59.466Z,1.62
2017-04-18T12:07:56.898Z,1.82
2017-04-18T12:08:55.981Z,1.57
2017-04-18T12:09:54.077Z,1.73
2017-04-18T12:10:53.185Z,1.80
2017-04-18T12:11:50.551Z,1.45
2017-04-18T12:12:50.069Z,1.48
2017-04-18T12:13:48.958Z,1.65
2017-04-18T12:14:46.304Z,1.95
2017-04-18T12:15:43.741Z,2.13
2017-04-18T12:16:41.969Z,1.58
2017-04-18T12:17:39.339Z,1.30
2017-04-18T12:18:37.438Z,1.53
2017-04-18T12:19:34.912Z,1.57
2017-04-18T12:20:32.363Z,1.50
2017-04-18T12:21:30.483Z,1.52
2017-04-18T12:22:27.852Z,1.28
2017-04-18T12:23:25.199Z,1.70
2017-04-18T12:24:22.544Z,1.42
2017-04-18T12:25:20.031Z,1.48
2017-04-18T12:26:18.305Z,1.43
2017-04-18T12:27:16.467Z,1.57
2017-04-18T12:28:13.946Z,1.12
2017-04-18T12:29:11.312Z,1.52
2017-04-18T12:30:08.680Z,1.25
2017-04-18T12:31:06.061Z,1.52
2017-04-18T12:32:04.091Z,1.47
2017-04-18T12:33:01.593Z,1.60
2017-04-18T12:33:59.672Z,1.68
2017-04-18T12:34:57.054Z,1.77
2017-04-18T12:35:55.262Z,1.30
2017-04-18T12:36:52.625Z,1.67
2017-04-18T12:37:50.731Z,1.32
2017-04-18T12:38:48.171Z,1.13
2017-04-18T12:39:45.567Z,1.60
2017-04-18T12:40:43.208Z,1.32
2017-04-18T12:41:40.571Z,1.60
2017-04-18T12:42:37.995Z,1.33
2017-04-18T12:43:36.275Z,1.10
2017-04-18T12:44:33.754Z,1.03
2017-04-18T12:45:31.769Z,1.47
2017-04-18T12:46:29.871Z,1.30
2017-04-18T12:47:27.258Z,1.50
2017-04-18T12:48:25.366Z,1.05
2017-04-18T12:49:22.837Z,1.10
2017-04-18T12:50:21.061Z,0.92
2017-04-18T12:51:18.514Z,0.97